Time;durP1;ratioP1;P1;durP2;ratioP2;P2;SDS_P1;SDS_P2;PMS_P1;PMS_P2;Temp;Humidity;BMP_temperature;BMP_pressure;BME280_temperature;BME280_humidity;BME280_pressure;Samples;Min_cycle;Max_cycle;Signal;HPM_P1;HPM_P2
2022/04/29 00:00:04;;;;;;;18.47;11.60;;;;;;;-145.68;100.00;63218.00;10408003;28;20687;-57
2022/04/29 00:06:04;;;;;;;17.30;11.23;;;;;;;-145.68;100.00;63218.00;10407618;28;20660;-55
2022/04/29 00:12:03;;;;;;;19.63;11.30;;;;;;;-145.68;100.00;63218.00;10407629;28;20258;-51
2022/04/29 00:18:02;;;;;;;18.30;11.73;;;;;;;-145.68;100.00;63218.00;10407694;28;20251;-58
2022/04/29 00:24:01;;;;;;;14.50;9.53;;;;;;;-145.68;100.00;63218.00;10407282;28;20196;-56
2022/04/29 00:30:01;;;;;;;14.83;9.20;;;;;;;-145.68;100.00;63218.00;10407111;28;20220;-52
2022/04/29 00:36:00;;;;;;;21.97;12.27;;;;;;;-145.68;100.00;63218.00;10407300;28;20283;-54
2022/04/29 00:41:59;;;;;;;16.23;9.93;;;;;;;-145.68;100.00;63218.00;10405551;28;20236;-54
2022/04/29 00:47:58;;;;;;;19.77;11.87;;;;;;;-145.68;100.00;63218.00;10432517;23;20726;-57
2022/04/29 00:53:57;;;;;;;15.53;9.13;;;;;;;-145.68;100.00;63218.00;10453761;28;20199;-58
2022/04/29 01:00:08;;;;;;;20.87;13.20;;;;;;;-145.68;100.00;63218.00;10479189;28;20206;-54
2022/04/29 01:06:08;;;;;;;19.90;12.10;;;;;;;-145.68;100.00;63218.00;10498128;28;20269;-55
2022/04/29 01:12:07;;;;;;;21.10;13.93;;;;;;;-145.68;100.00;63218.00;10497366;28;20320;-56
2022/04/29 01:18:08;;;;;;;21.10;12.03;;;;;;;-145.68;100.00;63218.00;10479344;28;20215;-59
2022/04/29 01:24:09;;;;;;;19.93;12.17;;;;;;;-145.68;100.00;63218.00;10478567;28;20217;-54
2022/04/29 01:30:11;;;;;;;16.60;10.53;;;;;;;-145.68;100.00;63218.00;10496915;28;20215;-56
2022/04/29 01:36:11;;;;;;;20.03;10.23;;;;;;;-145.68;100.00;63218.00;10478667;28;20282;-53
2022/04/29 01:42:10;;;;;;;22.87;13.03;;;;;;;-145.68;100.00;63218.00;10478846;28;20188;-58
2022/04/29 01:48:10;;;;;;;20.43;14.33;;;;;;;-145.68;100.00;63218.00;10495973;28;20296;-54
2022/04/29 01:54:19;;;;;;;20.40;13.50;;;;;;;-145.68;100.00;63218.00;10495798;28;20203;-56
2022/04/29 02:00:18;;;;;;;19.47;12.17;;;;;;;-145.68;100.00;63218.00;10477815;28;20552;-54
2022/04/29 02:06:22;;;;;;;22.23;13.10;;;;;;;-145.68;100.00;63218.00;10477371;28;20184;-57
2022/04/29 02:12:21;;;;;;;19.30;13.80;;;;;;;-145.68;100.00;63218.00;10477255;28;20225;-57
2022/04/29 02:18:29;;;;;;;20.93;13.60;;;;;;;-145.68;100.00;63218.00;10495359;28;20297;-57
2022/04/29 02:24:28;;;;;;;14.77;7.80;;;;;;;-145.68;100.00;63218.00;10476786;28;20194;-57
2022/04/29 02:30:27;;;;;;;25.30;13.63;;;;;;;-145.68;100.00;63218.00;10476683;28;20225;-56
2022/04/29 02:36:26;;;;;;;20.50;10.60;;;;;;;-145.68;100.00;63218.00;10476571;28;20196;-58
2022/04/29 02:42:25;;;;;;;10.20;7.33;;;;;;;-145.68;100.00;63218.00;10476184;28;20733;-57
2022/04/29 02:48:23;;;;;;;21.30;12.87;;;;;;;-145.68;100.00;63218.00;10475931;28;20238;-58
2022/04/29 02:54:22;;;;;;;23.50;11.70;;;;;;;-145.68;100.00;63218.00;10476510;28;20293;-56
2022/04/29 03:00:21;;;;;;;14.53;8.13;;;;;;;-145.68;100.00;63218.00;10493141;28;20199;-57
2022/04/29 03:06:20;;;;;;;20.80;13.10;;;;;;;-145.68;100.00;63218.00;10492422;28;20203;-59
2022/04/29 03:12:19;;;;;;;21.80;11.40;;;;;;;-145.68;100.00;63218.00;10493258;28;20274;-59
2022/04/29 03:18:24;;;;;;;18.57;11.30;;;;;;;-145.68;100.00;63218.00;10473699;28;20755;-58
2022/04/29 03:24:23;;;;;;;13.93;9.00;;;;;;;-145.68;100.00;63218.00;10491899;28;20203;-55
2022/04/29 03:30:22;;;;;;;13.83;10.67;;;;;;;-145.68;100.00;63218.00;10474433;28;20747;-54
2022/04/29 03:36:22;;;;;;;15.90;11.63;;;;;;;-145.68;100.00;63218.00;10473987;28;20423;-59
2022/04/29 03:42:26;;;;;;;18.00;11.97;;;;;;;-145.68;100.00;63218.00;10473648;28;20194;-53
2022/04/29 03:48:25;;;;;;;15.70;8.87;;;;;;;-145.68;100.00;63218.00;10473052;28;20245;-56
2022/04/29 03:54:45;;;;;;;15.73;9.20;;;;;;;-145.68;100.00;63218.00;10490257;28;20207;-55
2022/04/29 04:00:46;;;;;;;13.00;8.53;;;;;;;-145.68;100.00;63218.00;10472342;28;20271;-54
2022/04/29 04:06:51;;;;;;;13.57;9.67;;;;;;;-145.68;100.00;63218.00;10472659;28;20294;-54
2022/04/29 04:12:55;;;;;;;13.20;9.03;;;;;;;-145.68;100.00;63218.00;10472761;28;20225;-54
2022/04/29 04:18:54;;;;;;;12.47;7.80;;;;;;;-145.68;100.00;63218.00;10490728;28;20222;-54
2022/04/29 04:24:53;;;;;;;18.30;7.93;;;;;;;-145.68;100.00;63218.00;10472745;28;20872;-54
2022/04/29 04:30:53;;;;;;;13.27;8.33;;;;;;;-145.68;100.00;63218.00;10472366;28;20236;-56
2022/04/29 04:36:56;;;;;;;10.40;7.77;;;;;;;-145.68;100.00;63218.00;10472270;28;20210;-57
2022/04/29 04:42:57;;;;;;;12.97;7.63;;;;;;;-145.68;100.00;63218.00;10472834;28;20188;-56
2022/04/29 04:49:04;;;;;;;16.20;8.93;;;;;;;-145.68;100.00;63218.00;10472097;28;20230;-58
2022/04/29 04:55:26;;;;;;;14.43;7.60;;;;;;;-145.68;100.00;63218.00;10490009;28;20234;-56
2022/04/29 05:01:25;;;;;;;13.87;7.23;;;;;;;-145.68;100.00;63218.00;10490158;28;20176;-56
2022/04/29 05:07:53;;;;;;;17.10;6.90;;;;;;;-145.68;100.00;63218.00;10489513;28;20288;-57
2022/04/29 05:13:52;;;;;;;9.87;6.80;;;;;;;-145.68;100.00;63218.00;10471942;28;20631;-60
2022/04/29 05:19:51;;;;;;;10.40;6.50;;;;;;;-145.68;100.00;63218.00;10471667;28;20211;-58
2022/04/29 05:25:54;;;;;;;10.47;5.43;;;;;;;-145.68;100.00;63218.00;10471091;28;20202;-56
2022/04/29 05:32:22;;;;;;;6.60;4.33;;;;;;;-145.68;100.00;63218.00;10489107;28;20215;-58
2022/04/29 05:44:59;;;;;;;9.43;5.30;;;;;;;-145.68;100.00;63218.00;10477215;28;20202;-56
2022/04/29 05:50:58;;;;;;;8.47;5.70;;;;;;;-145.68;100.00;63218.00;10461463;28;20604;-55
2022/04/29 05:56:57;;;;;;;6.80;4.73;;;;;;;-145.68;100.00;63218.00;10477760;28;20207;-57
2022/04/29 06:02:57;;;;;;;10.43;5.70;;;;;;;-145.68;100.00;63218.00;10478923;28;20190;-59
2022/04/29 06:08:56;;;;;;;7.53;4.63;;;;;;;-145.68;100.00;63218.00;10477594;28;20712;-55
2022/04/29 06:14:56;;;;;;;13.47;4.37;;;;;;;-145.68;100.00;63218.00;10461965;28;20188;-54
2022/04/29 06:21:13;;;;;;;6.50;4.03;;;;;;;-145.68;100.00;63218.00;10470877;28;20850;-59
2022/04/29 06:27:17;;;;;;;9.07;4.13;;;;;;;-145.68;100.00;63218.00;10447041;28;20234;-52
2022/04/29 06:33:16;;;;;;;11.27;4.20;;;;;;;-145.68;100.00;63218.00;10436067;28;20219;-60
2022/04/29 06:39:18;;;;;;;12.93;3.65;;;;;;;-145.68;100.00;63218.00;10441193;28;20274;-57
2022/04/29 06:45:39;;;;;;;7.85;3.88;;;;;;;-145.68;100.00;63218.00;10485664;28;20231;-55
2022/04/29 06:52:04;;;;;;;9.27;3.10;;;;;;;-145.68;100.00;63218.00;10494300;28;20273;-55
2022/04/29 06:58:09;;;;;;;5.68;3.67;;;;;;;-145.68;100.00;63218.00;10517918;22;20712;-57
2022/04/29 07:04:14;;;;;;;5.00;2.97;;;;;;;-145.68;100.00;63218.00;10555073;28;20371;-57
2022/04/29 07:10:15;;;;;;;6.47;3.53;;;;;;;-145.68;100.00;63218.00;10570554;28;20243;-60
2022/04/29 07:16:32;;;;;;;7.55;3.72;;;;;;;-145.68;100.00;63218.00;10537315;28;20219;-59
2022/04/29 07:22:33;;;;;;;6.53;3.47;;;;;;;-145.68;100.00;63218.00;10531479;28;20226;-60
2022/04/29 07:28:34;;;;;;;10.05;3.80;;;;;;;-145.68;100.00;63218.00;10470903;28;20207;-59
2022/04/29 07:47:38;;;;;;;10.18;3.70;;;;;;;-145.68;100.00;63218.00;10470937;28;20222;-59
2022/04/29 07:53:58;;;;;;;10.35;4.25;;;;;;;-145.68;100.00;63218.00;10511976;28;20253;-60
2022/04/29 07:59:57;;;;;;;7.30;4.13;;;;;;;-145.68;100.00;63218.00;10511277;28;20234;-58
2022/04/29 08:06:19;;;;;;;10.38;4.22;;;;;;;-145.68;100.00;63218.00;10527682;28;20202;-62
2022/04/29 08:12:21;;;;;;;7.55;4.63;;;;;;;-145.68;100.00;63218.00;10526172;28;20210;-61
2022/04/29 08:18:43;;;;;;;7.53;4.07;;;;;;;-145.68;100.00;63218.00;10525979;28;20214;-59
2022/04/29 08:24:44;;;;;;;6.78;4.65;;;;;;;-145.68;100.00;63218.00;10510061;28;20198;-60
2022/04/29 08:30:43;;;;;;;9.90;5.03;;;;;;;-145.68;100.00;63218.00;10528356;28;20218;-59
2022/04/29 08:36:43;;;;;;;6.88;4.60;;;;;;;-145.68;100.00;63218.00;10510718;28;20285;-60
2022/04/29 08:42:42;;;;;;;11.00;4.93;;;;;;;-145.68;100.00;63218.00;10529273;28;20202;-58
2022/04/29 08:48:43;;;;;;;8.98;4.25;;;;;;;-145.68;100.00;63218.00;10510899;28;20215;-61
2022/04/29 09:01:09;;;;;;;9.35;4.00;;;;;;;-145.68;100.00;63218.00;10527398;28;20226;-57
2022/04/29 09:07:09;;;;;;;6.68;3.70;;;;;;;-145.68;100.00;63218.00;10527881;28;20969;-59
2022/04/29 09:13:13;;;;;;;10.20;4.75;;;;;;;-145.68;100.00;63218.00;10510713;28;20359;-60
2022/04/29 09:19:27;;;;;;;5.13;3.80;;;;;;;-145.68;100.00;63218.00;10525490;28;20224;-62
2022/04/29 09:25:39;;;;;;;11.57;4.68;;;;;;;-145.68;100.00;63218.00;10544694;28;20203;-60
2022/04/29 09:32:12;;;;;;;9.95;4.65;;;;;;;-145.68;100.00;63218.00;10528574;28;20255;-63
2022/04/29 09:44:45;;;;;;;5.85;2.88;;;;;;;-145.68;100.00;63218.00;10535844;28;20715;-60
2022/04/29 09:50:54;;;;;;;7.18;4.00;;;;;;;-145.68;100.00;63218.00;10516809;28;20228;-63
2022/04/29 09:57:08;;;;;;;8.50;3.97;;;;;;;-145.68;100.00;63218.00;10534552;28;20234;-60
2022/04/29 10:03:09;;;;;;;7.68;4.00;;;;;;;-145.68;100.00;63218.00;10540253;28;20194;-61
2022/04/29 10:09:08;;;;;;;8.52;4.78;;;;;;;-145.68;100.00;63218.00;10524221;28;20598;-62
2022/04/29 10:15:16;;;;;;;8.93;3.30;;;;;;;-145.68;100.00;63218.00;10535354;28;20210;-61
2022/04/29 10:21:19;;;;;;;7.05;3.45;;;;;;;-145.68;100.00;63218.00;10518074;28;20198;-62
2022/04/29 10:27:24;;;;;;;6.38;3.72;;;;;;;-145.68;100.00;63218.00;10517542;28;20207;-62
2022/04/29 10:33:23;;;;;;;5.93;3.58;;;;;;;-145.68;100.00;63218.00;10535885;28;20764;-61
2022/04/29 10:39:29;;;;;;;6.90;4.43;;;;;;;-145.68;100.00;63218.00;10534384;28;20286;-63
2022/04/29 10:45:29;;;;;;;8.43;3.47;;;;;;;-145.68;100.00;63218.00;10535737;28;20209;-62
2022/04/29 10:51:28;;;;;;;9.18;4.15;;;;;;;-145.68;100.00;63218.00;10516661;28;20910;-62
2022/04/29 10:57:56;;;;;;;6.20;4.22;;;;;;;-145.68;100.00;63218.00;10534753;28;20262;-62
2022/04/29 11:04:16;;;;;;;10.93;4.95;;;;;;;-145.68;100.00;63218.00;10516954;28;20773;-62
2022/04/29 11:10:25;;;;;;;12.50;6.78;;;;;;;-145.68;100.00;63218.00;10533155;28;20700;-62
2022/04/29 11:16:52;;;;;;;10.93;6.38;;;;;;;-145.68;100.00;63218.00;10498826;28;20201;-59
2022/04/29 11:29:52;;;;;;;7.72;5.38;;;;;;;-145.68;100.00;63218.00;10531249;28;20217;-60
2022/04/29 11:36:08;;;;;;;12.30;6.07;;;;;;;-145.68;100.00;63218.00;10515028;28;20581;-60
2022/04/29 11:42:19;;;;;;;12.10;5.60;;;;;;;-145.68;100.00;63218.00;10531802;28;20215;-61
2022/04/29 11:48:22;;;;;;;6.88;5.82;;;;;;;-145.68;100.00;63218.00;10515437;28;20206;-60
2022/04/29 11:55:01;;;;;;;11.32;5.55;;;;;;;-145.68;100.00;63218.00;10538061;28;20218;-61
2022/04/29 12:01:01;;;;;;;13.65;6.70;;;;;;;-145.68;100.00;63218.00;10531458;28;20734;-60
2022/04/29 12:07:05;;;;;;;14.07;6.35;;;;;;;-145.68;100.00;63218.00;10531240;28;20259;-61
2022/04/29 12:13:21;;;;;;;8.30;5.60;;;;;;;-145.68;100.00;63218.00;10512701;28;20364;-62
2022/04/29 12:19:41;;;;;;;10.93;6.57;;;;;;;-145.68;100.00;63218.00;10513133;28;20898;-61
2022/04/29 12:25:45;;;;;;;7.75;5.63;;;;;;;-145.68;100.00;63218.00;10531077;28;20195;-61
2022/04/29 12:38:16;;;;;;;12.38;5.47;;;;;;;-145.68;100.00;63218.00;10522965;28;20297;-62
2022/04/29 12:45:03;;;;;;;9.45;5.68;;;;;;;-145.68;100.00;63218.00;10529405;28;20198;-61
2022/04/29 12:50:40;;;;;;;9.65;5.43;;;;;;;-145.68;100.00;63218.00;10531193;28;20212;-62
2022/04/29 12:56:45;;;;;;;8.13;4.75;;;;;;;-145.68;100.00;63218.00;10520234;28;20703;-62
2022/04/29 13:02:44;;;;;;;10.60;5.22;;;;;;;-145.68;100.00;63218.00;10497181;28;20788;-61
2022/04/29 13:08:43;;;;;;;7.10;5.25;;;;;;;-145.68;100.00;63218.00;10499457;28;20211;-60
2022/04/29 13:14:42;;;;;;;11.77;5.15;;;;;;;-145.68;100.00;63218.00;10498547;28;20555;-60
2022/04/29 13:20:42;;;;;;;8.05;5.40;;;;;;;-145.68;100.00;63218.00;10439508;28;20234;-60
2022/04/29 13:26:45;;;;;;;8.98;6.00;;;;;;;-145.68;100.00;63218.00;10456909;28;20670;-60
2022/04/29 13:32:45;;;;;;;11.05;6.25;;;;;;;-145.68;100.00;63218.00;10460766;28;20211;-59
2022/04/29 13:38:44;;;;;;;9.48;5.35;;;;;;;-145.68;100.00;63218.00;10476654;28;20771;-58
2022/04/29 13:44:44;;;;;;;11.07;5.15;;;;;;;-145.68;100.00;63218.00;10468956;28;20535;-59
2022/04/29 13:50:44;;;;;;;13.43;5.05;;;;;;;-145.68;100.00;63218.00;10478374;28;20207;-59
2022/04/29 13:56:44;;;;;;;9.95;4.68;;;;;;;-145.68;100.00;63218.00;10494456;28;20198;-59
2022/04/29 14:02:43;;;;;;;11.43;5.50;;;;;;;-145.68;100.00;63218.00;10451786;28;20196;-58
2022/04/29 14:08:42;;;;;;;9.48;5.10;;;;;;;-145.68;100.00;63218.00;10452546;28;20247;-59
2022/04/29 14:14:41;;;;;;;7.30;4.93;;;;;;;-145.68;100.00;63218.00;10452847;28;20222;-58
2022/04/29 14:20:40;;;;;;;9.52;5.57;;;;;;;-145.68;100.00;63218.00;10451017;28;20629;-59
2022/04/29 14:26:38;;;;;;;10.48;5.28;;;;;;;-145.68;100.00;63218.00;10451929;28;20203;-59
2022/04/29 14:32:38;;;;;;;7.18;5.10;;;;;;;-145.68;100.00;63218.00;10451701;28;20216;-58
2022/04/29 14:38:37;;;;;;;9.88;4.63;;;;;;;-145.68;100.00;63218.00;10451727;28;20216;-60
2022/04/29 14:44:36;;;;;;;7.35;4.32;;;;;;;-145.68;100.00;63218.00;10451167;28;20192;-57
2022/04/29 14:50:35;;;;;;;8.98;4.43;;;;;;;-145.68;100.00;63218.00;10450629;28;20772;-59
2022/04/29 14:56:34;;;;;;;10.43;4.45;;;;;;;-145.68;100.00;63218.00;10445880;28;20275;-58
2022/04/29 15:02:34;;;;;;;6.63;4.40;;;;;;;-145.68;100.00;63218.00;10409138;28;20201;-57
2022/04/29 15:08:33;;;;;;;8.68;4.18;;;;;;;-145.68;100.00;63218.00;10408735;28;20213;-61
2022/04/29 15:20:51;;;;;;;6.45;4.43;;;;;;;-145.68;100.00;63218.00;10410349;28;20208;-59
2022/04/29 15:26:50;;;;;;;7.35;3.90;;;;;;;-145.68;100.00;63218.00;10409942;28;20199;-58
2022/04/29 15:32:49;;;;;;;7.78;4.05;;;;;;;-145.68;100.00;63218.00;10409588;28;20694;-59
2022/04/29 15:38:47;;;;;;;7.75;4.35;;;;;;;-145.68;100.00;63218.00;10409397;28;20224;-60
2022/04/29 15:44:46;;;;;;;7.03;4.10;;;;;;;-145.68;100.00;63218.00;10425974;28;20199;-59
2022/04/29 15:50:46;;;;;;;8.82;4.13;;;;;;;-145.68;100.00;63218.00;10450399;28;20693;-58
2022/04/29 15:56:45;;;;;;;4.55;3.65;;;;;;;-145.68;100.00;63218.00;10450126;28;20228;-55
2022/04/29 16:02:44;;;;;;;9.38;3.75;;;;;;;-145.68;100.00;63218.00;10491975;28;20191;-60
2022/04/29 16:08:43;;;;;;;9.27;4.30;;;;;;;-145.68;100.00;63218.00;10491275;28;20295;-60
2022/04/29 16:14:42;;;;;;;7.22;3.83;;;;;;;-145.68;100.00;63218.00;10491760;28;20226;-60
2022/04/29 16:20:42;;;;;;;7.95;3.10;;;;;;;-145.68;100.00;63218.00;10490889;28;20208;-61
2022/04/29 16:26:41;;;;;;;9.88;4.65;;;;;;;-145.68;100.00;63218.00;10489829;28;20716;-60
2022/04/29 16:32:40;;;;;;;8.00;3.88;;;;;;;-145.68;100.00;63218.00;10490651;28;20243;-59
2022/04/29 16:38:39;;;;;;;5.45;3.25;;;;;;;-145.68;100.00;63218.00;10490722;28;20214;-56
2022/04/29 16:44:43;;;;;;;3.15;2.75;;;;;;;-145.68;100.00;63218.00;10490820;28;20965;-59
2022/04/29 16:50:42;;;;;;;6.03;3.88;;;;;;;-145.68;100.00;63218.00;10490729;28;20268;-60
2022/04/29 17:03:00;;;;;;;5.85;2.92;;;;;;;-145.68;100.00;63218.00;10490253;28;20179;-59
2022/04/29 17:08:59;;;;;;;9.05;2.70;;;;;;;-145.68;100.00;63218.00;10489246;28;20207;-59
2022/04/29 17:14:58;;;;;;;3.47;2.28;;;;;;;-145.68;100.00;63218.00;10489434;28;20219;-59
2022/04/29 17:20:57;;;;;;;6.82;3.53;;;;;;;-145.68;100.00;63218.00;10489238;28;20218;-60
2022/04/29 17:26:55;;;;;;;5.88;2.92;;;;;;;-145.68;100.00;63218.00;10489371;28;20245;-57
2022/04/29 17:32:55;;;;;;;5.25;3.03;;;;;;;-145.68;100.00;63218.00;10489538;28;20259;-56
2022/04/29 17:38:55;;;;;;;6.85;2.95;;;;;;;-145.68;100.00;63218.00;10492127;28;20222;-57
2022/04/29 17:44:54;;;;;;;6.40;2.83;;;;;;;-145.68;100.00;63218.00;10497060;28;20775;-56
2022/04/29 17:50:53;;;;;;;8.60;4.25;;;;;;;-145.68;100.00;63218.00;10496461;28;20215;-55
2022/04/29 17:56:52;;;;;;;8.60;5.63;;;;;;;-145.68;100.00;63218.00;10496002;28;20724;-57
2022/04/29 18:02:51;;;;;;;37.90;24.42;;;;;;;-145.68;100.00;63218.00;10495814;28;20202;-54
2022/04/29 18:08:50;;;;;;;7.88;5.50;;;;;;;-145.68;100.00;63218.00;10494904;28;20211;-57
2022/04/29 18:14:49;;;;;;;11.13;4.70;;;;;;;-145.68;100.00;63218.00;10495542;28;20581;-54
2022/04/29 18:20:48;;;;;;;7.10;4.47;;;;;;;-145.68;100.00;63218.00;10495272;28;20219;-55
2022/04/29 18:26:47;;;;;;;7.40;3.93;;;;;;;-145.68;100.00;63218.00;10495018;28;20183;-55
2022/04/29 18:32:46;;;;;;;6.17;3.10;;;;;;;-145.68;100.00;63218.00;10495100;28;20215;-54
2022/04/29 18:38:45;;;;;;;8.17;3.47;;;;;;;-145.68;100.00;63218.00;10494959;28;20675;-55
2022/04/29 18:44:44;;;;;;;7.53;3.30;;;;;;;-145.68;100.00;63218.00;10494842;28;20590;-55
2022/04/29 18:50:43;;;;;;;10.67;3.53;;;;;;;-145.68;100.00;63218.00;10493891;28;20211;-55
2022/04/29 18:56:42;;;;;;;4.97;3.50;;;;;;;-145.68;100.00;63218.00;10493659;28;20298;-54
2022/04/29 19:02:44;;;;;;;5.60;3.40;;;;;;;-145.68;100.00;63218.00;10559858;22;20790;-63
2022/04/29 19:08:43;;;;;;;7.07;4.40;;;;;;;-145.68;100.00;63218.00;10577287;28;20639;-64
2022/04/29 19:14:42;;;;;;;9.90;4.60;;;;;;;-145.68;100.00;63218.00;10535422;28;20219;-63
2022/04/29 19:20:41;;;;;;;10.17;5.37;;;;;;;-145.68;100.00;63218.00;10516487;28;20214;-63
2022/04/29 19:26:40;;;;;;;17.60;9.63;;;;;;;-145.68;100.00;63218.00;10534468;28;20289;-64
2022/04/29 19:32:39;;;;;;;8.80;6.50;;;;;;;-145.68;100.00;63218.00;10534461;28;20245;-64
2022/04/29 19:38:38;;;;;;;12.60;7.60;;;;;;;-145.68;100.00;63218.00;10534039;28;20197;-63
2022/04/29 19:44:37;;;;;;;7.90;5.67;;;;;;;-145.68;100.00;63218.00;10533698;28;20225;-63
2022/04/29 19:50:36;;;;;;;9.57;5.70;;;;;;;-145.68;100.00;63218.00;10533846;28;20218;-63
2022/04/29 19:56:35;;;;;;;9.33;5.07;;;;;;;-145.68;100.00;63218.00;10533671;28;20844;-63
2022/04/29 20:08:52;;;;;;;7.87;6.50;;;;;;;-145.68;100.00;63218.00;10532732;28;20218;-62
2022/04/29 20:14:51;;;;;;;8.03;6.33;;;;;;;-145.68;100.00;63218.00;10533026;28;20777;-61
2022/04/29 20:20:53;;;;;;;7.43;4.10;;;;;;;-145.68;100.00;63218.00;10532393;28;20214;-62
2022/04/29 20:26:52;;;;;;;7.93;3.60;;;;;;;-145.68;100.00;63218.00;10532386;28;20186;-59
2022/04/29 20:32:51;;;;;;;8.33;4.60;;;;;;;-145.68;100.00;63218.00;10532696;28;20235;-61
2022/04/29 20:38:49;;;;;;;13.23;5.00;;;;;;;-145.68;100.00;63218.00;10532426;28;20704;-61
2022/04/29 20:44:48;;;;;;;4.77;3.77;;;;;;;-145.68;100.00;63218.00;10532289;28;20255;-61
2022/04/29 20:50:48;;;;;;;8.90;4.00;;;;;;;-145.68;100.00;63218.00;10532113;28;20206;-62
2022/04/29 20:56:47;;;;;;;5.53;4.60;;;;;;;-145.68;100.00;63218.00;10532017;28;20701;-61
2022/04/29 21:02:46;;;;;;;4.97;4.27;;;;;;;-145.68;100.00;63218.00;10531610;28;20685;-58
2022/04/29 21:08:46;;;;;;;6.87;4.63;;;;;;;-145.68;100.00;63218.00;10531072;28;20194;-61
2022/04/29 21:14:44;;;;;;;6.73;4.23;;;;;;;-145.68;100.00;63218.00;10537195;28;20317;-61
2022/04/29 21:20:43;;;;;;;10.60;4.70;;;;;;;-145.68;100.00;63218.00;10539364;28;20213;-61
2022/04/29 21:26:43;;;;;;;6.13;4.10;;;;;;;-145.68;100.00;63218.00;10538038;28;20190;-61
2022/04/29 21:32:41;;;;;;;5.87;3.83;;;;;;;-145.68;100.00;63218.00;10535901;28;20218;-60
2022/04/29 21:38:40;;;;;;;4.20;2.87;;;;;;;-145.68;100.00;63218.00;10537923;28;20394;-60
2022/04/29 21:44:39;;;;;;;6.00;4.67;;;;;;;-145.68;100.00;63218.00;10534428;28;20298;-60
2022/04/29 21:50:38;;;;;;;5.77;3.63;;;;;;;-145.68;100.00;63218.00;10538465;28;20615;-60
2022/04/29 21:56:37;;;;;;;8.83;5.33;;;;;;;-145.68;100.00;63218.00;10538364;28;20226;-61
2022/04/29 22:02:36;;;;;;;7.57;5.50;;;;;;;-145.68;100.00;63218.00;10535613;28;20230;-60
2022/04/29 22:08:35;;;;;;;6.93;4.90;;;;;;;-145.68;100.00;63218.00;10532494;28;21082;-59
2022/04/29 22:14:34;;;;;;;13.20;4.50;;;;;;;-145.68;100.00;63218.00;10531964;28;20223;-61
2022/04/29 22:20:33;;;;;;;6.90;4.93;;;;;;;-145.68;100.00;63218.00;10532710;28;20210;-60
2022/04/29 22:26:32;;;;;;;9.30;4.93;;;;;;;-145.68;100.00;63218.00;10531848;28;20675;-60
2022/04/29 22:32:31;;;;;;;8.63;4.40;;;;;;;-145.68;100.00;63218.00;10531402;28;20219;-61
2022/04/29 22:38:30;;;;;;;7.40;3.50;;;;;;;-145.68;100.00;63218.00;10532363;28;20222;-58
2022/04/29 22:44:28;;;;;;;4.80;3.77;;;;;;;-145.68;100.00;63218.00;10528847;28;20207;-59
2022/04/29 22:50:27;;;;;;;5.77;3.70;;;;;;;-145.68;100.00;63218.00;10530995;28;20252;-61
2022/04/29 22:56:27;;;;;;;6.07;3.53;;;;;;;-145.68;100.00;63218.00;10530542;28;20279;-60
2022/04/29 23:02:26;;;;;;;4.97;4.03;;;;;;;-145.68;100.00;63218.00;10529987;28;20234;-60
2022/04/29 23:08:25;;;;;;;4.43;4.00;;;;;;;-145.68;100.00;63218.00;10530204;28;20202;-59
2022/04/29 23:14:24;;;;;;;3.37;3.00;;;;;;;-145.68;100.00;63218.00;10528936;28;20229;-61
2022/04/29 23:20:23;;;;;;;8.70;3.93;;;;;;;-145.68;100.00;63218.00;10528782;28;20217;-61
2022/04/29 23:26:23;;;;;;;8.67;3.63;;;;;;;-145.68;100.00;63218.00;10528520;28;20259;-60
2022/04/29 23:32:23;;;;;;;5.20;3.60;;;;;;;-145.68;100.00;63218.00;10527804;28;20220;-61
2022/04/29 23:38:22;;;;;;;46.07;3.73;;;;;;;-145.68;100.00;63218.00;10527094;28;20728;-59
2022/04/29 23:44:21;;;;;;;4.53;3.70;;;;;;;-145.68;100.00;63218.00;10528643;28;20179;-57
2022/04/29 23:50:22;;;;;;;6.20;3.47;;;;;;;-145.68;100.00;63218.00;10529109;28;20288;-60
2022/04/29 23:56:22;;;;;;;4.27;3.00;;;;;;;-145.68;100.00;63218.00;10528621;28;20750;-60
